Time;durP1;ratioP1;P1;durP2;ratioP2;P2;SDS_P1;SDS_P2;PMS_P1;PMS_P2;Temp;Humidity;BMP_temperature;BMP_pressure;BME280_temperature;BME280_humidity;BME280_pressure;Samples;Min_cycle;Max_cycle;Signal;HPM_P1;HPM_P2
2022/05/27 00:01:22;;;;;;;345.50;329.58;;;16.60;99.90;;;16.75;98.81;100761.00;4957269;28;20228;-63
2022/05/27 00:03:51;;;;;;;340.15;324.13;;;16.60;99.90;;;16.72;99.28;100774.38;4984759;28;20204;-64
2022/05/27 00:06:19;;;;;;;360.17;344.27;;;16.60;99.90;;;16.66;99.69;100774.47;4988988;28;20230;-64
2022/05/27 00:08:48;;;;;;;358.63;341.95;;;16.50;99.90;;;16.60;100.00;100774.47;4981616;28;20208;-63
2022/05/27 00:11:16;;;;;;;358.00;342.20;;;16.50;99.90;;;16.69;100.00;100784.22;5017500;28;20227;-63
2022/05/27 00:13:44;;;;;;;358.02;341.83;;;16.40;99.90;;;16.55;100.00;100787.88;4980214;28;20208;-64
2022/05/27 00:16:13;;;;;;;359.42;343.60;;;16.40;99.90;;;16.53;100.00;100781.66;5021743;28;20218;-63
2022/05/27 00:18:41;;;;;;;357.95;341.13;;;16.40;99.90;;;16.67;99.84;100802.94;5015285;28;20212;-64
2022/05/27 00:21:10;;;;;;;346.85;331.90;;;16.40;99.90;;;16.55;100.00;100793.22;4982791;28;20232;-63
2022/05/27 00:23:40;;;;;;;359.08;343.10;;;16.40;99.90;;;16.32;100.00;100788.09;4985785;28;20216;-63
2022/05/27 00:26:08;;;;;;;373.10;356.67;;;16.30;99.90;;;16.23;100.00;100789.97;4985828;28;20228;-63
2022/05/27 00:28:36;;;;;;;373.58;357.08;;;16.30;99.90;;;16.24;100.00;100797.94;4998400;28;20229;-63
2022/05/27 00:31:06;;;;;;;372.33;355.35;;;16.20;99.90;;;16.20;100.00;100812.22;4970658;28;20212;-63
2022/05/27 00:33:37;;;;;;;369.83;353.70;;;16.10;99.90;;;16.25;100.00;100821.06;5000189;28;20208;-63
2022/05/27 00:36:10;;;;;;;377.33;360.73;;;16.10;99.90;;;16.36;100.00;100833.44;4969646;28;20207;-62
2022/05/27 00:38:39;;;;;;;405.45;387.90;;;16.10;99.90;;;16.57;100.00;100857.28;4972081;28;20208;-63
2022/05/27 00:41:09;;;;;;;380.30;363.52;;;16.10;99.90;;;16.47;100.00;100842.25;4987954;28;20250;-63
2022/05/27 00:43:40;;;;;;;402.92;384.63;;;16.20;99.90;;;16.42;100.00;100833.38;5004102;28;20216;-63
2022/05/27 00:46:29;;;;;;;389.75;372.38;;;16.20;99.90;;;16.28;100.00;100831.72;4985824;28;20225;-63
2022/05/27 00:49:13;;;;;;;383.20;365.98;;;16.10;99.90;;;16.23;100.00;100832.66;5002670;28;20203;-63
2022/05/27 00:51:57;;;;;;;400.08;382.25;;;16.10;99.90;;;16.25;100.00;100825.53;4973980;28;20216;-64
2022/05/27 00:54:26;;;;;;;404.63;386.98;;;16.10;99.90;;;16.09;100.00;100818.53;4992177;28;20695;-63
2022/05/27 00:56:58;;;;;;;409.65;391.50;;;16.00;99.90;;;16.05;100.00;100827.47;5007749;28;20211;-63
2022/05/27 00:59:50;;;;;;;405.58;387.48;;;15.90;99.90;;;16.18;100.00;100846.03;4968937;28;20204;-63
2022/05/27 01:02:18;;;;;;;414.33;396.35;;;15.90;99.90;;;16.11;100.00;100846.09;4985424;28;20196;-63
2022/05/27 01:04:48;;;;;;;419.38;401.00;;;15.90;99.90;;;16.08;100.00;100843.44;5004066;28;20215;-63
2022/05/27 01:07:16;;;;;;;438.42;418.42;;;15.90;99.90;;;16.10;100.00;100849.66;5004223;28;20224;-64
2022/05/27 01:09:47;;;;;;;464.73;444.08;;;15.80;99.90;;;16.07;100.00;100853.22;4984809;28;20231;-63
2022/05/27 01:12:41;;;;;;;476.15;455.50;;;15.80;99.90;;;16.16;100.00;100866.50;4970157;28;20204;-63
2022/05/27 01:15:18;;;;;;;443.00;422.85;;;15.80;99.90;;;16.10;100.00;100855.00;4999985;28;20609;-63
2022/05/27 01:17:53;;;;;;;438.08;418.15;;;15.80;99.90;;;15.94;100.00;100847.09;4997997;28;20226;-63
2022/05/27 01:20:44;;;;;;;435.25;415.88;;;15.80;99.90;;;15.80;100.00;100851.63;5010708;28;20227;-63
2022/05/27 01:23:38;;;;;;;409.75;391.98;;;15.70;99.90;;;15.77;100.00;100850.75;4999940;28;20215;-63
2022/05/27 01:26:17;;;;;;;410.58;392.08;;;15.70;99.90;;;15.72;100.00;100849.91;5013873;28;20668;-63
2022/05/27 01:28:55;;;;;;;393.90;375.80;;;15.60;99.90;;;15.73;100.00;100865.88;4988374;28;20215;-63
2022/05/27 01:31:23;;;;;;;383.33;366.63;;;15.60;99.90;;;15.80;100.00;100872.06;5015669;28;20582;-63
2022/05/27 01:34:19;;;;;;;383.58;366.42;;;15.60;99.90;;;15.68;100.00;100867.69;5015945;28;20204;-63
2022/05/27 01:37:05;;;;;;;393.02;375.90;;;15.60;99.90;;;15.68;100.00;100886.34;4988278;28;20219;-63
2022/05/27 01:40:19;;;;;;;399.98;381.83;;;15.50;99.90;;;15.61;100.00;100884.59;5004648;28;20235;-63
2022/05/27 01:43:04;;;;;;;395.52;377.90;;;15.50;99.90;;;15.45;100.00;100881.06;5001621;28;20223;-63
2022/05/27 01:45:42;;;;;;;413.85;395.30;;;15.40;99.90;;;15.45;100.00;100883.72;5019065;28;20297;-63
2022/05/27 01:48:19;;;;;;;460.30;440.10;;;15.40;99.90;;;15.47;100.00;100897.03;5017208;28;20204;-63
2022/05/27 01:51:10;;;;;;;445.80;426.58;;;15.30;99.90;;;15.68;100.00;100913.00;4999835;28;20232;-63
2022/05/27 01:53:51;;;;;;;433.95;414.58;;;15.40;99.90;;;15.47;100.00;100883.72;4996763;28;20677;-63
2022/05/27 01:56:30;;;;;;;431.75;413.15;;;15.30;99.90;;;15.24;100.00;100879.34;4946630;28;20208;-63
2022/05/27 01:59:05;;;;;;;420.17;401.33;;;15.20;99.90;;;15.22;100.00;100886.47;5006116;28;20648;-63
2022/05/27 02:01:39;;;;;;;438.00;418.33;;;15.10;99.90;;;15.25;100.00;100893.56;5013905;28;20243;-63
2022/05/27 02:04:39;;;;;;;456.88;436.02;;;15.10;99.90;;;15.37;100.00;100915.72;4967197;28;20219;-63
2022/05/27 02:07:26;;;;;;;448.98;429.10;;;15.10;99.90;;;15.43;100.00;100922.81;4974436;28;20231;-63
2022/05/27 02:10:00;;;;;;;484.38;462.05;;;15.10;99.90;;;15.51;100.00;100937.00;5002407;28;20247;-63
2022/05/27 02:12:57;;;;;;;465.35;444.85;;;15.20;99.90;;;15.45;100.00;100921.03;4995245;28;20195;-63
2022/05/27 02:15:39;;;;;;;456.60;436.17;;;15.20;99.90;;;15.35;100.00;100920.16;5003893;28;20220;-63
2022/05/27 02:18:37;;;;;;;466.80;447.35;;;15.10;99.90;;;15.40;100.00;100930.81;5014351;28;20239;-63
2022/05/27 02:21:39;;;;;;;464.23;443.48;;;15.10;99.90;;;15.29;100.00;100937.97;4979293;28;20236;-63
2022/05/27 02:24:17;;;;;;;458.67;438.95;;;15.10;99.90;;;15.33;100.00;100951.28;5013626;28;20212;-62
2022/05/27 02:26:54;;;;;;;439.55;421.30;;;15.10;99.90;;;15.34;100.00;100957.50;4985046;28;20272;-63
2022/05/27 02:29:28;;;;;;;438.48;418.85;;;15.10;99.90;;;15.21;100.00;100945.97;5017735;28;20641;-62
2022/05/27 02:32:08;;;;;;;436.33;417.10;;;15.00;99.90;;;15.12;100.00;100950.41;4980247;28;20207;-63
2022/05/27 02:35:07;;;;;;;441.85;421.92;;;15.00;99.90;;;15.17;100.00;100949.53;4981290;28;20212;-63
2022/05/27 02:37:44;;;;;;;459.67;439.17;;;15.00;99.90;;;15.06;100.00;100953.97;4992258;28;20255;-63
2022/05/27 02:40:33;;;;;;;447.30;427.48;;;14.90;99.90;;;15.03;100.00;100956.66;4989596;28;20239;-63
2022/05/27 02:43:10;;;;;;;419.40;401.20;;;14.90;99.90;;;15.10;100.00;100965.53;4993257;28;20207;-63
2022/05/27 02:46:26;;;;;;;401.38;383.38;;;14.90;99.90;;;15.05;100.00;100962.88;5021813;28;20219;-62
2022/05/27 02:49:14;;;;;;;417.42;397.35;;;14.80;99.90;;;15.00;100.00;100965.53;4907379;28;20208;-63
2022/05/27 02:52:18;;;;;;;423.38;404.67;;;14.80;99.90;;;14.92;100.00;100972.63;4988139;28;20208;-63
2022/05/27 02:55:10;;;;;;;410.50;392.30;;;14.80;99.90;;;14.89;100.00;100969.09;5023241;28;20687;-63
2022/05/27 02:57:44;;;;;;;406.90;388.83;;;14.70;99.90;;;14.91;100.00;100975.28;4988600;28;20207;-63
2022/05/27 03:00:26;;;;;;;409.88;391.90;;;14.70;99.90;;;14.83;100.00;100975.28;5005992;28;20228;-63
2022/05/27 03:02:59;;;;;;;414.17;395.85;;;14.70;99.90;;;14.79;100.00;100978.84;4987965;28;20219;-63
2022/05/27 03:06:01;;;;;;;416.05;396.38;;;14.60;99.90;;;14.81;100.00;100998.38;5001265;28;20212;-63
2022/05/27 03:08:57;;;;;;;415.42;396.73;;;14.60;99.90;;;14.73;100.00;101003.69;5005515;28;20204;-63
2022/05/27 03:12:05;;;;;;;418.42;400.67;;;14.60;99.90;;;14.76;100.00;101009.91;5019555;28;20232;-63
2022/05/27 03:15:00;;;;;;;436.38;416.48;;;14.60;99.90;;;14.78;100.00;101018.78;4976197;28;20212;-63
2022/05/27 03:18:25;;;;;;;435.55;416.13;;;14.60;99.90;;;14.83;100.00;101025.88;4990980;28;20212;-63
2022/05/27 03:21:17;;;;;;;435.42;416.70;;;14.50;99.90;;;14.87;100.00;101029.44;4990898;28;20231;-63
2022/05/27 03:24:31;;;;;;;438.25;418.40;;;14.60;99.90;;;14.85;100.00;101036.53;4992092;28;20231;-64
2022/05/27 03:27:34;;;;;;;456.45;435.63;;;14.60;99.90;;;14.81;100.00;101045.41;4991254;28;20233;-63
2022/05/27 03:30:22;;;;;;;474.95;453.20;;;14.60;99.90;;;14.82;100.00;101045.41;5011021;28;20250;-63
2022/05/27 03:33:20;;;;;;;482.75;460.63;;;14.60;99.90;;;14.81;100.00;101053.41;5003343;28;20208;-64
2022/05/27 03:36:11;;;;;;;486.85;464.48;;;14.60;99.90;;;14.88;100.00;101065.84;5016996;28;20218;-63
2022/05/27 03:39:14;;;;;;;481.98;459.67;;;14.60;99.90;;;14.85;100.00;101066.72;4968815;28;20203;-63
2022/05/27 03:41:50;;;;;;;487.17;464.40;;;14.70;99.90;;;14.92;100.00;101075.63;5012711;28;20208;-64
2022/05/27 03:44:22;;;;;;;493.15;470.05;;;14.70;99.90;;;14.96;100.00;101078.28;4986848;28;20196;-64
2022/05/27 03:46:51;;;;;;;490.30;467.92;;;14.70;99.90;;;14.98;100.00;101080.94;4987522;28;20242;-63
2022/05/27 03:49:19;;;;;;;497.23;474.67;;;14.70;99.90;;;14.99;100.00;101075.63;4973028;28;20203;-63
2022/05/27 03:52:08;;;;;;;483.33;461.17;;;14.70;99.90;;;15.05;100.00;101070.28;4988366;28;20203;-63
2022/05/27 03:54:36;;;;;;;469.00;447.63;;;14.70;99.90;;;15.01;100.00;101072.97;5002962;28;20204;-62
2022/05/27 03:57:04;;;;;;;474.48;452.75;;;14.80;99.90;;;15.04;100.00;101083.63;4984917;28;20208;-63
2022/05/27 03:59:32;;;;;;;469.40;447.98;;;14.70;99.90;;;15.08;100.00;101085.41;4973459;28;20235;-63
2022/05/27 04:02:00;;;;;;;447.52;426.95;;;14.80;99.90;;;15.12;100.00;101094.28;4985704;28;20223;-63
2022/05/27 04:04:29;;;;;;;456.55;435.55;;;14.80;99.90;;;15.14;100.00;101090.72;4974477;28;20226;-63
2022/05/27 04:06:57;;;;;;;457.88;437.58;;;14.80;99.90;;;15.11;100.00;101085.41;4975423;28;20224;-63
2022/05/27 04:09:26;;;;;;;466.23;444.75;;;14.80;99.90;;;15.11;100.00;101095.16;4994927;28;20200;-63
2022/05/27 04:11:54;;;;;;;478.77;457.02;;;14.80;99.90;;;15.15;100.00;101103.16;4990811;28;20191;-63
2022/05/27 04:14:23;;;;;;;494.38;470.95;;;14.80;99.90;;;15.19;100.00;101096.06;5006350;28;20235;-63
2022/05/27 04:16:51;;;;;;;499.55;477.08;;;14.90;99.90;;;15.17;100.00;101100.50;5003490;28;20231;-63
2022/05/27 04:19:19;;;;;;;515.75;491.92;;;14.90;99.90;;;15.20;100.00;101100.50;5021256;28;20220;-63
2022/05/27 04:21:47;;;;;;;486.35;464.02;;;14.90;99.90;;;15.20;100.00;101100.50;4987805;28;20211;-63
2022/05/27 04:24:15;;;;;;;492.63;469.65;;;14.90;99.90;;;15.19;100.00;101096.94;5020115;28;20203;-63
2022/05/27 04:26:43;;;;;;;502.27;478.10;;;15.00;99.90;;;15.21;100.00;101102.28;4989664;28;20231;-63
2022/05/27 04:29:11;;;;;;;472.67;451.52;;;15.00;99.90;;;15.28;100.00;101101.41;4985780;28;20201;-62
2022/05/27 04:31:38;;;;;;;488.88;466.38;;;15.00;99.90;;;15.27;100.00;101108.50;5000928;28;20196;-62
2022/05/27 04:34:10;;;;;;;507.27;483.20;;;15.00;99.90;;;15.33;100.00;101113.84;4973307;28;20208;-62
2022/05/27 04:36:38;;;;;;;501.92;479.80;;;15.00;99.90;;;15.33;100.00;101116.50;4973940;28;20231;-62
2022/05/27 04:39:06;;;;;;;473.58;450.67;;;15.10;99.90;;;15.35;100.00;101113.84;5021194;28;20208;-62
2022/05/27 04:41:35;;;;;;;481.20;458.73;;;15.10;99.90;;;15.38;100.00;101122.72;4989971;28;20232;-62
2022/05/27 04:44:03;;;;;;;478.10;456.50;;;15.10;99.90;;;15.42;100.00;101120.94;5002971;28;20215;-62
2022/05/27 04:46:31;;;;;;;501.85;478.25;;;15.20;99.90;;;15.40;100.00;101122.72;5000026;28;20692;-62
2022/05/27 04:48:59;;;;;;;505.95;482.67;;;15.20;99.90;;;15.43;100.00;101128.06;5001932;28;20224;-62
2022/05/27 04:51:27;;;;;;;512.42;487.52;;;15.20;99.90;;;15.47;100.00;101116.50;5000991;28;20242;-61
2022/05/27 04:53:55;;;;;;;516.03;491.38;;;15.20;99.90;;;15.48;100.00;101109.38;4956893;28;20204;-62
2022/05/27 04:56:26;;;;;;;483.00;459.33;;;15.30;99.90;;;15.48;100.00;101120.06;5002927;28;20207;-62
2022/05/27 04:58:54;;;;;;;497.88;474.90;;;15.30;99.90;;;15.47;100.00;101121.84;4969394;28;20212;-62
2022/05/27 05:01:22;;;;;;;493.27;470.25;;;15.30;99.90;;;15.53;100.00;101126.28;5003742;28;20321;-62
2022/05/27 05:03:50;;;;;;;515.45;491.27;;;15.30;99.90;;;15.53;100.00;101120.94;5022872;28;20218;-62
2022/05/27 05:06:18;;;;;;;479.95;457.83;;;15.30;99.90;;;15.57;100.00;101131.63;5020294;28;20570;-62
2022/05/27 05:08:46;;;;;;;477.30;456.20;;;15.40;99.90;;;15.61;100.00;101128.13;4990395;28;20257;-62
2022/05/27 05:11:14;;;;;;;509.08;485.23;;;15.40;99.90;;;15.58;100.00;101133.41;4966367;28;20212;-62
2022/05/27 05:13:42;;;;;;;510.45;487.02;;;15.40;99.90;;;15.61;100.00;101144.13;4991804;28;20224;-62
2022/05/27 05:16:10;;;;;;;510.40;487.33;;;15.40;99.90;;;15.66;100.00;101121.00;4957067;28;20208;-62
2022/05/27 05:18:38;;;;;;;513.72;489.58;;;15.40;99.90;;;15.64;100.00;101136.13;5020694;28;20281;-62
2022/05/27 05:21:06;;;;;;;494.75;469.63;;;15.50;99.90;;;15.71;100.00;101134.31;4978042;28;20230;-62
2022/05/27 05:23:38;;;;;;;507.27;483.02;;;15.50;99.90;;;15.77;100.00;101133.44;4970678;28;20580;-62
2022/05/27 05:26:05;;;;;;;511.45;487.65;;;15.50;99.90;;;15.80;100.00;101130.75;4964791;28;20703;-62
2022/05/27 05:28:34;;;;;;;529.55;504.50;;;15.60;99.90;;;15.88;100.00;101121.84;4996162;28;20320;-62
2022/05/27 05:31:02;;;;;;;514.83;490.98;;;15.60;99.90;;;15.90;100.00;101116.53;4997738;28;20223;-61
2022/05/27 05:33:30;;;;;;;519.38;495.30;;;15.70;99.90;;;15.86;100.00;101109.41;4971492;28;20208;-61
2022/05/27 05:35:58;;;;;;;519.13;494.85;;;15.70;99.90;;;15.84;100.00;101114.75;4991741;28;20204;-61
2022/05/27 05:38:27;;;;;;;525.03;499.45;;;15.80;99.90;;;15.77;100.00;101109.44;5016427;28;20215;-62
2022/05/27 05:40:55;;;;;;;494.65;472.88;;;15.70;99.90;;;15.79;100.00;101102.31;5003231;28;20600;-62
2022/05/27 05:43:24;;;;;;;500.90;477.35;;;15.70;99.90;;;15.83;100.00;101106.75;4992250;28;20211;-62
2022/05/27 05:45:58;;;;;;;501.20;478.08;;;15.70;99.90;;;15.94;100.00;101110.28;5001893;28;20585;-62
2022/05/27 05:48:27;;;;;;;511.15;487.00;;;15.80;99.90;;;15.98;100.00;101114.72;5017463;28;20234;-61
2022/05/27 05:50:55;;;;;;;509.80;486.75;;;15.80;99.90;;;16.00;100.00;101104.94;5023176;28;20235;-62
2022/05/27 05:53:23;;;;;;;502.98;480.10;;;15.80;99.90;;;16.02;100.00;101100.47;5001366;28;20203;-62
2022/05/27 05:55:51;;;;;;;517.45;493.83;;;15.90;99.90;;;16.02;100.00;101096.94;4997943;28;20200;-62
2022/05/27 05:58:19;;;;;;;513.38;490.25;;;15.90;99.90;;;16.02;100.00;101092.47;5031076;28;20200;-62
2022/05/27 06:00:47;;;;;;;521.63;494.63;;;15.80;99.90;;;16.06;100.00;101094.25;4979618;28;20231;-62
2022/05/27 06:03:16;;;;;;;533.80;508.95;;;15.90;99.90;;;16.15;100.00;101112.00;4978038;28;20208;-62
2022/05/27 06:05:43;;;;;;;537.75;511.60;;;15.90;99.90;;;16.15;100.00;101126.25;5004870;28;20286;-62
2022/05/27 06:08:11;;;;;;;544.88;517.83;;;16.00;99.90;;;16.09;100.00;101125.38;4975451;28;20224;-62
2022/05/27 06:10:39;;;;;;;552.92;526.08;;;16.00;99.90;;;15.98;100.00;101122.72;4988016;28;20239;-62
2022/05/27 06:13:08;;;;;;;554.75;527.33;;;15.90;99.90;;;16.12;100.00;101126.25;4974252;28;20200;-62
2022/05/27 06:15:36;;;;;;;546.05;519.28;;;15.90;99.90;;;16.26;100.00;101132.44;4983874;28;20565;-62
2022/05/27 06:18:05;;;;;;;545.83;518.78;;;16.00;99.90;;;16.35;100.00;101141.31;4980220;28;20224;-62
2022/05/27 06:20:35;;;;;;;546.55;518.55;;;16.00;99.90;;;16.39;100.00;101133.28;5006788;28;20227;-62
2022/05/27 06:23:06;;;;;;;541.70;515.92;;;16.10;99.90;;;16.51;100.00;101135.91;4995684;28;20204;-63
2022/05/27 06:25:34;;;;;;;552.40;525.78;;;16.20;99.90;;;16.74;100.00;101153.63;5003218;28;20235;-62
2022/05/27 06:36:23;;;;;;;562.75;535.15;;;16.70;99.90;;;17.20;100.00;101095.50;5001340;28;20204;-62
2022/05/27 06:38:51;;;;;;;572.83;542.60;;;16.80;99.90;;;17.26;99.58;101090.97;4974079;28;20230;-62
2022/05/27 06:41:19;;;;;;;564.90;534.33;;;16.90;99.90;;;17.38;100.00;101098.03;4995880;28;20242;-62
2022/05/27 06:43:47;;;;;;;515.78;491.25;;;17.00;99.90;;;17.51;100.00;101101.47;4987904;28;20216;-62
2022/05/27 06:46:15;;;;;;;516.75;489.50;;;17.10;99.90;;;17.46;99.99;101089.94;4990579;28;20756;-62
2022/05/27 06:48:43;;;;;;;519.40;490.42;;;17.20;99.90;;;17.40;99.22;101068.59;4968406;28;20215;-62
2022/05/27 06:51:11;;;;;;;521.20;490.92;;;17.20;99.90;;;17.49;98.37;101064.06;4976698;28;20224;-62
2022/05/27 06:53:46;;;;;;;479.08;455.10;;;17.20;99.90;;;17.60;98.34;101078.19;4975978;28;20212;-62
2022/05/27 06:56:16;;;;;;;510.70;484.05;;;17.40;99.90;;;17.57;97.64;101062.19;4962526;28;20207;-62
2022/05/27 06:59:04;;;;;;;511.10;483.95;;;17.40;99.90;;;17.63;97.62;101052.34;4962799;28;20212;-62
2022/05/27 07:01:33;;;;;;;507.80;481.17;;;17.50;99.90;;;17.58;97.27;101047.91;4994338;28;20234;-62
2022/05/27 07:04:02;;;;;;;522.97;493.48;;;17.50;99.90;;;17.64;98.18;101067.47;4959849;28;20216;-62
2022/05/27 07:06:42;;;;;;;514.78;486.77;;;17.50;99.90;;;17.63;97.74;101058.56;4987993;28;20255;-62
2022/05/27 07:09:13;;;;;;;527.05;499.17;;;17.60;99.90;;;17.71;97.86;101063.88;4996243;28;20228;-62
2022/05/27 07:11:44;;;;;;;541.05;513.22;;;17.50;99.90;;;17.71;97.06;101053.16;4962511;28;20216;-62
2022/05/27 07:14:13;;;;;;;543.35;514.67;;;17.60;99.90;;;17.64;96.74;101040.72;4981333;28;20691;-62
2022/05/27 07:16:43;;;;;;;515.65;488.63;;;17.70;99.90;;;17.65;96.31;101027.34;4983118;28;20220;-62
2022/05/27 07:19:31;;;;;;;540.45;513.22;;;17.60;99.90;;;17.84;95.91;101038.75;4960820;28;20585;-62
2022/05/27 07:22:00;;;;;;;553.28;524.22;;;17.70;99.90;;;17.88;96.88;101054.75;4982616;28;20689;-62
2022/05/27 07:24:28;;;;;;;596.10;563.95;;;17.80;99.90;;;17.87;95.46;101039.63;4977843;28;20563;-62
2022/05/27 07:26:56;;;;;;;600.22;570.17;;;17.90;99.90;;;18.05;96.66;101053.69;5001082;28;20214;-62
2022/05/27 07:29:24;;;;;;;605.03;575.03;;;18.00;99.90;;;18.07;94.47;101031.34;4984603;28;20236;-62
2022/05/27 07:31:52;;;;;;;623.78;590.95;;;18.00;99.90;;;18.01;93.46;101015.38;4982728;28;20567;-62
2022/05/27 07:34:20;;;;;;;625.78;591.90;;;18.00;99.90;;;17.69;93.54;100985.44;4997911;28;20208;-62
2022/05/27 07:36:48;;;;;;;620.03;588.67;;;17.90;99.90;;;17.77;94.63;101013.88;4965812;28;20208;-62
2022/05/27 07:39:16;;;;;;;633.42;601.58;;;17.90;99.90;;;17.81;94.52;101007.56;4975225;28;20204;-62
2022/05/27 07:41:44;;;;;;;643.10;610.42;;;17.80;99.90;;;17.81;94.23;100999.53;5019334;28;20220;-62
2022/05/27 07:44:12;;;;;;;628.65;595.90;;;17.90;99.90;;;17.95;95.45;101025.25;4970286;28;20204;-62
2022/05/27 07:46:40;;;;;;;636.22;602.10;;;17.90;99.90;;;17.80;96.50;101020.97;4996161;28;20223;-62
2022/05/27 07:49:09;;;;;;;658.03;622.33;;;17.90;99.90;;;17.86;97.17;101037.84;4998017;28;20235;-62
2022/05/27 07:51:57;;;;;;;656.92;622.53;;;17.90;99.90;;;17.88;96.59;101038.72;4979231;28;20219;-63
2022/05/27 07:54:24;;;;;;;654.45;618.95;;;17.90;99.90;;;17.84;96.56;101028.06;4957279;28;20227;-63
2022/05/27 07:56:52;;;;;;;651.33;615.83;;;17.90;99.90;;;17.92;96.49;101044.91;4991056;28;20208;-63
2022/05/27 07:59:20;;;;;;;591.30;559.22;;;19.80;99.90;;;17.84;98.24;101058.38;4999302;28;20220;-62
2022/05/27 08:01:48;;;;;;;629.10;597.58;;;18.00;99.90;;;17.98;97.77;101068.94;4972052;28;20216;-63
2022/05/27 08:04:16;;;;;;;642.70;608.58;;;18.00;99.90;;;18.13;97.34;101065.19;4966491;28;20224;-63
2022/05/27 08:06:45;;;;;;;642.85;609.40;;;18.10;99.90;;;18.30;97.31;101073.94;4970747;28;20223;-62
2022/05/27 08:09:15;;;;;;;659.95;623.75;;;18.30;99.90;;;18.34;98.00;101077.47;4981083;28;20215;-63
2022/05/27 08:12:02;;;;;;;610.53;577.95;;;18.30;99.90;;;18.13;97.78;101047.34;4981139;28;20211;-63
2022/05/27 08:14:30;;;;;;;585.80;555.97;;;18.30;99.90;;;18.41;96.79;101061.28;5001946;28;20215;-63
2022/05/27 08:17:00;;;;;;;588.30;556.50;;;18.30;99.90;;;18.47;97.06;101054.97;5005902;28;20211;-63
2022/05/27 08:19:28;;;;;;;603.95;570.63;;;18.60;99.90;;;19.03;95.88;101072.03;4975300;28;20212;-63
2022/05/27 08:21:56;;;;;;;586.25;555.58;;;18.60;99.90;;;18.82;95.17;101023.22;4991397;28;20215;-63
2022/05/27 08:24:24;;;;;;;609.35;578.20;;;18.80;99.90;;;18.82;95.31;101022.34;4988752;28;20215;-63
2022/05/27 08:26:54;;;;;;;590.78;560.78;;;18.90;99.90;;;19.11;95.08;101051.38;4987410;28;20215;-64
2022/05/27 08:29:22;;;;;;;574.90;547.53;;;19.10;99.90;;;19.19;94.96;101036.03;4968625;28;20219;-61
2022/05/27 08:31:50;;;;;;;594.42;565.75;;;19.10;99.90;;;19.54;93.98;101048.00;4966727;28;20201;-61
2022/05/27 08:39:52;;;;;;;601.90;570.33;;;19.70;99.90;;;19.44;92.13;100966.75;4997458;28;20235;-63
2022/05/27 08:42:43;;;;;;;591.72;562.30;;;19.60;99.90;;;19.17;92.71;100960.97;4975027;28;20207;-62
2022/05/27 08:45:21;;;;;;;583.92;552.95;;;19.40;99.90;;;19.15;92.42;100945.84;5005877;28;20219;-62
2022/05/27 08:47:54;;;;;;;606.75;575.17;;;19.40;99.90;;;19.03;92.96;100946.06;4980998;28;20230;-63
2022/05/27 08:50:53;;;;;;;598.75;567.67;;;19.30;99.90;;;19.00;92.52;100936.28;4972043;28;20231;-63
2022/05/27 08:53:52;;;;;;;584.83;554.72;;;19.30;99.90;;;19.04;92.82;100943.34;4983711;28;20223;-62
2022/05/27 08:59:40;;;;;;;609.55;577.60;;;19.50;99.90;;;19.26;91.50;100933.13;4974058;28;20204;-62
2022/05/27 09:02:32;;;;;;;606.10;575.28;;;19.50;99.90;;;19.27;91.29;100937.56;4962561;28;20200;-62
2022/05/27 09:05:22;;;;;;;593.88;562.45;;;19.60;99.90;;;19.86;89.95;100953.47;4998548;28;20219;-62
2022/05/27 09:08:20;;;;;;;589.03;559.08;;;19.90;99.90;;;19.79;88.86;100920.50;4984432;28;20219;-62
2022/05/27 09:11:18;;;;;;;610.78;579.38;;;19.90;99.90;;;19.53;89.71;100904.94;4988221;28;20246;-62
2022/05/27 09:14:14;;;;;;;605.50;574.00;;;19.80;99.90;;;19.98;88.21;100911.13;4992458;28;20203;-62
2022/05/27 09:16:56;;;;;;;608.85;576.90;;;20.00;99.90;;;20.31;87.84;100925.59;5002759;28;20223;-63
2022/05/27 09:19:58;;;;;;;595.15;563.60;;;20.20;99.90;;;20.66;87.45;100923.91;4972600;28;20239;-62
2022/05/27 09:22:56;;;;;;;660.92;626.33;;;20.70;99.90;;;20.90;86.77;100931.38;5008817;28;20213;-62
2022/05/27 09:25:45;;;;;;;607.72;575.58;;;20.80;99.90;;;20.75;85.27;100884.25;4963351;28;20214;-63
2022/05/27 09:28:45;;;;;;;593.60;561.97;;;20.90;99.90;;;20.96;83.44;100861.31;4997471;28;20206;-62
2022/05/27 09:31:23;;;;;;;570.40;540.30;;;21.10;99.90;;;21.21;85.35;100890.22;4991154;28;20250;-62
2022/05/27 09:33:54;;;;;;;537.30;508.45;;;21.20;99.90;;;21.22;82.22;100827.44;4977144;28;20211;-62
2022/05/27 09:36:36;;;;;;;527.70;498.33;;;21.50;99.90;;;21.31;82.70;100830.78;5007996;28;20211;-62
2022/05/27 09:39:15;;;;;;;512.60;483.33;;;21.70;99.90;;;21.37;83.63;100845.88;4987872;28;20207;-62
2022/05/27 09:42:19;;;;;;;470.70;444.70;;;21.70;99.90;;;21.53;81.56;100814.88;4980712;28;20208;-62
2022/05/27 09:44:55;;;;;;;476.35;449.80;;;21.80;99.90;;;20.89;83.47;100740.53;5007681;28;20202;-62
2022/05/27 09:47:31;;;;;;;480.58;454.63;;;21.60;99.90;;;20.88;82.64;100746.84;5002171;28;20212;-61
2022/05/27 09:50:08;;;;;;;477.45;451.45;;;21.50;99.90;;;21.32;82.45;100799.38;4994904;28;20246;-62
2022/05/27 09:52:40;;;;;;;444.70;419.83;;;21.60;99.90;;;21.25;83.24;100782.53;4955343;28;20206;-62
2022/05/27 09:55:37;;;;;;;452.23;427.80;;;21.60;99.90;;;21.73;81.71;100819.66;5016948;28;20235;-62
2022/05/27 09:58:07;;;;;;;447.27;421.80;;;21.80;99.90;;;20.77;82.46;100699.63;4969014;28;20578;-62
2022/05/27 10:00:43;;;;;;;451.40;425.98;;;21.70;99.90;;;21.14;81.86;100736.22;4994117;28;20228;-62
2022/05/27 10:03:33;;;;;;;456.42;431.33;;;21.60;99.90;;;21.43;82.65;100777.53;4980756;28;20207;-63
2022/05/27 10:06:19;;;;;;;446.65;423.05;;;21.80;99.90;;;22.02;81.59;100797.19;5005414;28;20203;-62
2022/05/27 10:08:54;;;;;;;449.70;425.13;;;22.10;99.90;;;21.57;80.66;100716.09;4959818;28;20204;-63
2022/05/27 10:11:35;;;;;;;448.52;424.40;;;22.20;99.90;;;21.64;82.80;100750.84;4970627;28;20231;-62
2022/05/27 10:14:35;;;;;;;445.25;421.45;;;22.10;99.90;;;21.30;82.68;100701.69;5019775;28;20222;-63
2022/05/27 10:17:12;;;;;;;449.88;425.17;;;21.90;99.90;;;21.51;81.58;100719.88;4974015;28;20216;-62
2022/05/27 10:19:47;;;;;;;428.15;405.02;;;22.00;99.90;;;21.39;80.77;100688.84;4985232;28;20671;-63
2022/05/27 10:22:27;;;;;;;431.63;409.02;;;22.10;99.90;;;21.52;81.94;100705.47;5003214;28;20204;-62
2022/05/27 10:25:04;;;;;;;428.33;404.35;;;22.20;99.90;;;21.47;81.10;100685.91;4988656;28;20222;-64
2022/05/27 10:27:40;;;;;;;410.85;388.75;;;22.20;99.90;;;21.54;81.64;100698.25;4981656;28;20211;-63
2022/05/27 10:30:25;;;;;;;408.90;384.30;;;20.70;99.90;;;21.33;81.61;100663.94;4984893;28;20230;-64
2022/05/27 10:32:54;;;;;;;436.70;413.15;;;22.00;99.90;;;21.32;82.10;100665.75;5001487;28;20234;-63
2022/05/27 10:35:32;;;;;;;441.35;418.67;;;22.00;99.90;;;21.51;82.96;100700.16;4983155;28;20196;-63
2022/05/27 10:38:42;;;;;;;439.60;416.73;;;22.10;99.90;;;21.80;84.19;100756.63;5004909;28;20206;-63